createdAt,value
2022-07-29T00:00:05.779Z,63.31
2022-07-29T00:01:05.742Z,63.37
2022-07-29T00:02:05.703Z,63.37
2022-07-29T00:03:05.736Z,63.60
2022-07-29T00:04:05.699Z,64.11
2022-07-29T00:05:05.608Z,63.70
2022-07-29T00:06:05.560Z,63.81
2022-07-29T00:07:05.525Z,63.50
2022-07-29T00:08:09.350Z,63.90
2022-07-29T00:09:05.450Z,63.81
2022-07-29T00:10:05.412Z,63.40
2022-07-29T00:11:05.387Z,64.31
2022-07-29T00:12:05.344Z,63.81
2022-07-29T00:13:05.305Z,64.11
2022-07-29T00:14:05.264Z,64.11
2022-07-29T00:15:05.231Z,64.31
2022-07-29T00:16:05.374Z,64.01
2022-07-29T00:17:05.156Z,64.81
2022-07-29T00:18:05.173Z,63.70
2022-07-29T00:19:05.085Z,63.81
2022-07-29T00:20:05.050Z,64.81
2022-07-29T00:21:05.012Z,63.90
2022-07-29T00:22:04.983Z,64.40
2022-07-29T00:23:04.939Z,64.01
2022-07-29T00:24:04.906Z,64.31
2022-07-29T00:25:04.866Z,64.31
2022-07-29T00:26:04.829Z,64.11
2022-07-29T00:27:04.793Z,64.21
2022-07-29T00:28:04.765Z,64.91
2022-07-29T00:29:33.057Z,64.81
2022-07-29T00:30:04.682Z,64.61
2022-07-29T00:31:04.682Z,64.81
2022-07-29T00:32:04.686Z,64.81
2022-07-29T00:33:08.951Z,64.01
2022-07-29T00:34:04.547Z,65.34
2022-07-29T00:35:04.499Z,64.94
2022-07-29T00:36:04.461Z,64.64
2022-07-29T00:37:04.426Z,65.04
2022-07-29T00:38:04.396Z,65.14
2022-07-29T00:39:04.355Z,64.43
2022-07-29T00:40:04.327Z,64.43
2022-07-29T00:41:04.293Z,64.64
2022-07-29T00:42:04.261Z,64.84
2022-07-29T00:43:04.207Z,65.34
2022-07-29T00:44:04.171Z,65.44
2022-07-29T00:45:04.136Z,65.34
2022-07-29T00:46:04.096Z,65.44
2022-07-29T00:47:04.173Z,65.24
2022-07-29T00:48:04.023Z,64.77
2022-07-29T00:49:04.068Z,64.64
2022-07-29T00:50:03.953Z,64.94
2022-07-29T00:51:03.914Z,64.84
2022-07-29T00:52:03.880Z,64.54
2022-07-29T00:53:03.848Z,64.54
2022-07-29T00:54:03.812Z,64.94
2022-07-29T00:55:08.247Z,65.04
2022-07-29T00:56:03.733Z,64.84
2022-07-29T00:57:03.693Z,65.14
2022-07-29T00:58:03.657Z,65.04
2022-07-29T00:59:03.639Z,65.47
2022-07-29T01:00:03.585Z,65.64
2022-07-29T01:01:03.617Z,65.27
2022-07-29T01:02:03.615Z,65.17
2022-07-29T01:03:03.475Z,65.57
2022-07-29T01:04:03.439Z,66.17
2022-07-29T01:05:03.415Z,65.17
2022-07-29T01:06:03.363Z,65.47
2022-07-29T01:07:03.329Z,65.47
2022-07-29T01:08:03.290Z,65.17
2022-07-29T01:09:03.254Z,65.57
2022-07-29T01:10:03.217Z,65.57
2022-07-29T01:11:03.195Z,65.77
2022-07-29T01:12:03.144Z,65.88
2022-07-29T01:13:03.109Z,65.97
2022-07-29T01:14:03.073Z,65.07
2022-07-29T01:15:03.034Z,65.27
2022-07-29T01:16:03.062Z,65.47
2022-07-29T01:17:02.961Z,66.08
2022-07-29T01:18:02.921Z,65.67
2022-07-29T01:19:02.897Z,66.08
2022-07-29T01:20:02.856Z,66.17
2022-07-29T01:21:02.828Z,64.67
2022-07-29T01:22:02.779Z,65.17
2022-07-29T01:23:02.740Z,66.08
2022-07-29T01:24:02.717Z,66.08
2022-07-29T01:25:02.676Z,65.37
2022-07-29T01:26:02.637Z,66.08
2022-07-29T01:27:02.606Z,66.28
2022-07-29T01:28:02.560Z,66.17
2022-07-29T01:29:07.428Z,66.28
2022-07-29T01:30:02.505Z,66.58
2022-07-29T01:31:02.468Z,66.28
2022-07-29T01:32:02.439Z,66.98
2022-07-29T01:33:02.382Z,66.91
2022-07-29T01:34:02.339Z,66.81
2022-07-29T01:35:02.305Z,66.51
2022-07-29T01:36:02.280Z,67.91
2022-07-29T01:37:02.227Z,67.01
2022-07-29T01:38:02.195Z,66.98
2022-07-29T01:39:02.157Z,67.41
2022-07-29T01:40:02.126Z,67.31
2022-07-29T01:41:02.105Z,66.91
2022-07-29T01:42:02.044Z,67.61
2022-07-29T01:43:02.011Z,68.02
2022-07-29T01:44:01.977Z,66.91
2022-07-29T01:45:01.946Z,67.21
2022-07-29T01:46:01.901Z,67.51
2022-07-29T01:47:01.948Z,66.11
2022-07-29T01:48:01.826Z,67.61
2022-07-29T01:49:01.840Z,67.71
2022-07-29T01:50:01.755Z,67.82
2022-07-29T01:51:01.733Z,67.91
2022-07-29T01:52:01.677Z,67.91
2022-07-29T01:53:01.643Z,68.12
2022-07-29T01:54:01.612Z,68.72
2022-07-29T01:55:01.571Z,69.22
2022-07-29T01:56:01.535Z,69.22
2022-07-29T01:57:01.507Z,69.72
2022-07-29T01:58:01.460Z,70.86
2022-07-29T01:59:01.433Z,70.46
2022-07-29T02:00:01.386Z,70.96
2022-07-29T02:01:01.351Z,72.47
2022-07-29T02:02:01.361Z,71.77
2022-07-29T02:03:01.291Z,71.60
2022-07-29T02:04:01.242Z,72.07
2022-07-29T02:05:01.260Z,72.81
2022-07-29T02:06:01.167Z,72.41
2022-07-29T02:07:01.127Z,73.00
2022-07-29T02:08:01.094Z,72.41
2022-07-29T02:09:01.069Z,73.14
2022-07-29T02:10:01.023Z,74.52
2022-07-29T02:11:00.983Z,74.75
2022-07-29T02:12:00.946Z,75.96
2022-07-29T02:13:00.909Z,75.19
2022-07-29T02:14:00.871Z,75.96
2022-07-29T02:15:00.858Z,74.85
2022-07-29T02:16:00.844Z,73.88
2022-07-29T02:17:00.763Z,74.38
2022-07-29T02:18:00.729Z,74.89
2022-07-29T02:19:00.690Z,75.39
2022-07-29T02:20:00.651Z,75.49
2022-07-29T02:21:00.630Z,73.98
2022-07-29T02:22:00.579Z,74.89
2022-07-29T02:23:00.545Z,75.19
2022-07-29T02:24:00.508Z,74.99
2022-07-29T02:25:00.892Z,75.09
2022-07-29T02:26:00.432Z,75.29
2022-07-29T02:27:00.409Z,77.50
2022-07-29T02:28:00.361Z,78.31
2022-07-29T02:29:00.320Z,78.27
2022-07-29T02:30:00.285Z,78.41
2022-07-29T02:31:00.282Z,78.11
2022-07-29T02:32:00.220Z,78.81
2022-07-29T02:33:00.172Z,78.55
2022-07-29T02:34:00.136Z,76.70
2022-07-29T02:35:00.110Z,78.05
2022-07-29T02:36:00.069Z,77.44
2022-07-29T02:37:00.024Z,78.45
2022-07-29T02:38:00.017Z,78.65
2022-07-29T02:38:59.953Z,78.96
2022-07-29T02:39:59.918Z,78.85
2022-07-29T02:40:59.875Z,78.05
2022-07-29T02:41:59.840Z,77.44
2022-07-29T02:42:59.804Z,77.04
2022-07-29T02:43:59.781Z,77.34
2022-07-29T02:44:59.730Z,76.23
2022-07-29T02:45:59.760Z,75.59
2022-07-29T02:46:59.737Z,74.89
2022-07-29T02:47:59.624Z,72.37
2022-07-29T02:48:59.675Z,73.08
2022-07-29T02:50:00.656Z,72.47
2022-07-29T02:50:59.507Z,72.47
2022-07-29T02:51:59.473Z,72.54
2022-07-29T02:52:59.441Z,71.94
2022-07-29T02:53:59.404Z,72.24
2022-07-29T02:54:59.372Z,72.03
2022-07-29T02:55:59.324Z,71.83
2022-07-29T02:56:59.292Z,72.44
2022-07-29T02:57:59.249Z,71.73
2022-07-29T02:58:59.213Z,71.33
2022-07-29T02:59:59.176Z,71.53
2022-07-29T03:00:59.148Z,72.14
2022-07-29T03:01:59.126Z,71.06
2022-07-29T03:02:59.064Z,71.63
2022-07-29T03:03:59.025Z,71.43
2022-07-29T03:04:59.015Z,72.03
2022-07-29T03:05:58.958Z,71.67
2022-07-29T03:06:58.928Z,71.56
2022-07-29T03:07:58.882Z,72.57
2022-07-29T03:09:13.256Z,71.67
2022-07-29T03:09:58.804Z,71.63
2022-07-29T03:10:58.767Z,72.24
2022-07-29T03:11:58.745Z,70.86
2022-07-29T03:12:59.078Z,70.83
2022-07-29T03:13:58.656Z,72.47
2022-07-29T03:14:58.620Z,71.63
2022-07-29T03:15:58.662Z,72.14
2022-07-29T03:16:58.542Z,71.53
2022-07-29T03:17:58.518Z,71.43
2022-07-29T03:18:58.471Z,72.03
2022-07-29T03:19:58.434Z,71.77
2022-07-29T03:20:58.421Z,72.54
2022-07-29T03:21:58.361Z,71.94
2022-07-29T03:22:58.330Z,71.83
2022-07-29T03:23:58.286Z,70.53
2022-07-29T03:24:58.245Z,71.43
2022-07-29T03:25:58.217Z,71.43
2022-07-29T03:26:58.173Z,71.43
2022-07-29T03:27:59.030Z,71.33
2022-07-29T03:28:58.108Z,70.16
2022-07-29T03:29:58.063Z,71.36
2022-07-29T03:30:58.058Z,70.76
2022-07-29T03:31:57.991Z,70.96
2022-07-29T03:32:58.124Z,70.46
2022-07-29T03:33:57.915Z,71.03
2022-07-29T03:34:57.888Z,71.94
2022-07-29T03:35:57.844Z,70.32
2022-07-29T03:36:57.804Z,70.53
2022-07-29T03:37:57.767Z,71.33
2022-07-29T03:38:57.729Z,71.43
2022-07-29T03:39:57.694Z,71.53
2022-07-29T03:40:57.672Z,76.76
2022-07-29T03:41:57.626Z,79.42
2022-07-29T03:42:57.585Z,81.47
2022-07-29T03:43:57.547Z,84.83
2022-07-29T03:44:57.505Z,85.31
2022-07-29T03:45:57.519Z,87.58
2022-07-29T03:46:57.444Z,88.83
2022-07-29T03:48:00.662Z,90.79
2022-07-29T03:48:57.651Z,91.90
2022-07-29T03:49:57.323Z,92.45
2022-07-29T03:50:57.280Z,94.17
2022-07-29T03:51:57.246Z,95.43
2022-07-29T03:52:57.222Z,95.12
2022-07-29T03:53:57.171Z,96.64
2022-07-29T03:54:57.134Z,95.78
2022-07-29T03:55:57.096Z,95.37
2022-07-29T03:56:57.057Z,94.81
2022-07-29T03:57:57.017Z,96.22
2022-07-29T03:58:56.995Z,96.12
2022-07-29T03:59:56.959Z,97.03
2022-07-29T04:00:56.905Z,96.42
2022-07-29T04:01:56.891Z,96.53
2022-07-29T04:02:56.923Z,97.28
2022-07-29T04:03:56.863Z,97.14
2022-07-29T04:04:56.763Z,96.63
2022-07-29T04:05:56.717Z,96.42
2022-07-29T04:06:56.677Z,95.92
2022-07-29T04:07:56.639Z,95.42
2022-07-29T04:08:56.599Z,95.51
2022-07-29T04:09:56.578Z,95.01
2022-07-29T04:10:56.523Z,94.60
2022-07-29T04:12:02.220Z,94.30
2022-07-29T04:12:56.447Z,94.00
2022-07-29T04:13:56.415Z,94.81
2022-07-29T04:14:56.371Z,94.50
2022-07-29T04:15:56.439Z,94.46
2022-07-29T04:16:56.302Z,93.65
2022-07-29T04:17:56.261Z,92.74
2022-07-29T04:18:56.220Z,91.83
2022-07-29T04:19:56.182Z,93.44
2022-07-29T04:20:56.141Z,93.55
2022-07-29T04:21:56.119Z,93.85
2022-07-29T04:22:56.067Z,93.35
2022-07-29T04:23:56.032Z,92.74
2022-07-29T04:24:59.103Z,91.12
2022-07-29T04:25:55.951Z,90.21
2022-07-29T04:26:55.928Z,89.70
2022-07-29T04:27:55.881Z,91.49
2022-07-29T04:28:55.834Z,91.18
2022-07-29T04:29:56.333Z,89.97
2022-07-29T04:30:55.812Z,89.87
2022-07-29T04:31:55.722Z,89.16
2022-07-29T04:32:55.694Z,90.47
2022-07-29T04:33:55.654Z,89.26
2022-07-29T04:34:55.607Z,89.46
2022-07-29T04:35:55.571Z,88.61
2022-07-29T04:36:55.535Z,91.49
2022-07-29T04:37:55.493Z,91.78
2022-07-29T04:38:55.464Z,93.76
2022-07-29T04:39:55.445Z,93.60
2022-07-29T04:40:55.379Z,94.31
2022-07-29T04:41:56.414Z,94.57
2022-07-29T04:42:55.300Z,94.57
2022-07-29T04:43:55.985Z,93.87
2022-07-29T04:44:55.235Z,92.55
2022-07-29T04:45:56.106Z,93.76
2022-07-29T04:46:55.161Z,94.42
2022-07-29T04:47:55.121Z,94.21
2022-07-29T04:48:55.136Z,96.64
2022-07-29T04:49:55.036Z,96.58
2022-07-29T04:50:55.017Z,98.00
2022-07-29T04:51:54.965Z,97.74
2022-07-29T04:52:54.939Z,99.10
2022-07-29T04:53:54.881Z,99.99
2022-07-29T04:54:54.856Z,99.99
2022-07-29T04:55:54.807Z,99.99
2022-07-29T04:56:54.766Z,99.99
2022-07-29T04:57:54.727Z,99.99
2022-07-29T04:58:54.693Z,99.99
2022-07-29T04:59:54.652Z,99.99
2022-07-29T05:00:54.633Z,99.99
2022-07-29T05:01:54.624Z,99.99
2022-07-29T05:02:54.635Z,99.99
2022-07-29T05:03:59.874Z,99.99
2022-07-29T05:04:54.458Z,99.99
2022-07-29T05:05:54.422Z,99.99
2022-07-29T05:06:54.394Z,99.99
2022-07-29T05:07:54.347Z,99.99
2022-07-29T05:08:54.304Z,99.99
2022-07-29T05:09:54.266Z,99.99
2022-07-29T05:10:54.229Z,99.99
2022-07-29T05:11:54.196Z,99.99
2022-07-29T05:12:54.162Z,99.99
2022-07-29T05:13:54.125Z,99.99
2022-07-29T05:14:54.074Z,99.99
2022-07-29T05:15:54.107Z,99.99
2022-07-29T05:16:53.999Z,99.99
2022-07-29T05:17:53.959Z,99.99
2022-07-29T05:18:53.930Z,99.99
2022-07-29T05:19:53.884Z,99.99
2022-07-29T05:20:53.853Z,99.99
2022-07-29T05:21:53.803Z,99.99
2022-07-29T05:22:53.766Z,99.99
2022-07-29T05:23:53.729Z,99.99
2022-07-29T05:24:53.693Z,99.99
2022-07-29T05:25:53.651Z,99.99
2022-07-29T05:26:53.625Z,99.99
2022-07-29T05:27:53.575Z,99.99
2022-07-29T05:28:53.536Z,99.99
2022-07-29T05:29:53.502Z,99.99
2022-07-29T05:30:53.492Z,99.99
2022-07-29T05:31:53.421Z,99.99
2022-07-29T05:32:53.392Z,99.99
2022-07-29T05:33:53.346Z,99.99
2022-07-29T05:34:53.305Z,99.99
2022-07-29T05:35:55.309Z,99.99
2022-07-29T05:36:53.227Z,99.99
2022-07-29T05:37:53.190Z,99.99
2022-07-29T05:38:53.179Z,99.99
2022-07-29T05:39:56.877Z,99.99
2022-07-29T05:40:53.073Z,99.99
2022-07-29T05:41:53.039Z,99.99
2022-07-29T05:42:53.003Z,98.95
2022-07-29T05:43:52.963Z,98.65
2022-07-29T05:44:52.938Z,98.54
2022-07-29T05:45:52.930Z,99.66
2022-07-29T05:46:52.847Z,99.99
2022-07-29T05:47:52.809Z,99.01
2022-07-29T05:48:52.812Z,99.96
2022-07-29T05:49:52.733Z,99.99
2022-07-29T05:50:52.710Z,99.99
2022-07-29T05:51:52.657Z,99.99
2022-07-29T05:52:52.623Z,99.99
2022-07-29T05:53:52.581Z,99.99
2022-07-29T05:54:52.542Z,99.99
2022-07-29T05:55:52.505Z,99.99
2022-07-29T05:56:52.475Z,99.10
2022-07-29T05:57:52.428Z,98.90
2022-07-29T05:58:52.392Z,97.94
2022-07-29T05:59:52.352Z,99.16
2022-07-29T06:00:52.323Z,99.52
2022-07-29T06:01:52.342Z,98.91
2022-07-29T06:02:52.239Z,96.89
2022-07-29T06:03:52.200Z,97.85
2022-07-29T06:04:52.197Z,96.13
2022-07-29T06:05:52.127Z,95.98
2022-07-29T06:06:52.090Z,95.83
2022-07-29T06:07:52.080Z,95.73
2022-07-29T06:08:52.017Z,96.39
2022-07-29T06:09:51.976Z,97.50
2022-07-29T06:10:51.938Z,95.48
2022-07-29T06:11:51.897Z,97.40
2022-07-29T06:12:51.861Z,94.98
2022-07-29T06:13:51.831Z,93.46
2022-07-29T06:14:54.211Z,96.04
2022-07-29T06:15:51.802Z,96.39
2022-07-29T06:16:51.741Z,96.25
2022-07-29T06:17:59.099Z,95.07
2022-07-29T06:18:51.645Z,96.55
2022-07-29T06:19:51.597Z,98.16
2022-07-29T06:20:51.561Z,96.45
2022-07-29T06:21:51.522Z,96.25
2022-07-29T06:22:51.489Z,96.95
2022-07-29T06:23:51.451Z,97.51
2022-07-29T06:24:51.423Z,96.40
2022-07-29T06:25:51.374Z,96.36
2022-07-29T06:26:51.340Z,96.05
2022-07-29T06:27:51.298Z,96.56
2022-07-29T06:28:51.267Z,97.62
2022-07-29T06:29:51.225Z,97.52
2022-07-29T06:30:51.267Z,98.43
2022-07-29T06:31:51.152Z,99.04
2022-07-29T06:32:51.112Z,99.84
2022-07-29T06:33:51.084Z,99.99
2022-07-29T06:34:51.042Z,99.99
2022-07-29T06:35:53.306Z,99.99
2022-07-29T06:36:50.978Z,99.99
2022-07-29T06:37:50.928Z,99.99
2022-07-29T06:38:51.510Z,99.99
2022-07-29T06:39:50.855Z,99.99
2022-07-29T06:40:50.820Z,99.99
2022-07-29T06:41:50.779Z,99.99
2022-07-29T06:42:50.757Z,99.99
2022-07-29T06:43:54.394Z,99.99
2022-07-29T06:44:50.671Z,99.99
2022-07-29T06:45:50.661Z,99.99
2022-07-29T06:46:50.598Z,99.99
2022-07-29T06:47:50.572Z,99.99
2022-07-29T06:48:50.592Z,99.99
2022-07-29T06:49:50.482Z,99.99
2022-07-29T06:50:50.450Z,99.99
2022-07-29T06:51:50.408Z,99.99
2022-07-29T06:52:50.374Z,99.99
2022-07-29T06:53:59.794Z,99.99
2022-07-29T06:54:50.297Z,99.99
2022-07-29T06:55:50.261Z,99.99
2022-07-29T06:56:50.225Z,99.99
2022-07-29T06:57:50.186Z,99.99
2022-07-29T06:58:50.153Z,99.99
2022-07-29T06:59:50.130Z,99.99
2022-07-29T07:00:50.138Z,99.99
2022-07-29T07:01:50.096Z,99.99
2022-07-29T07:02:50.074Z,99.99
2022-07-29T07:03:50.160Z,99.99
2022-07-29T07:04:49.928Z,99.99
2022-07-29T07:05:49.919Z,99.99
2022-07-29T07:06:49.859Z,99.99
2022-07-29T07:07:49.828Z,99.99
2022-07-29T07:08:49.780Z,99.99
2022-07-29T07:09:49.742Z,99.99
2022-07-29T07:10:49.706Z,99.99
2022-07-29T07:11:50.250Z,99.99
2022-07-29T07:12:49.635Z,99.99
2022-07-29T07:13:49.617Z,99.99
2022-07-29T07:14:49.558Z,99.99
2022-07-29T07:15:49.530Z,99.99
2022-07-29T07:16:49.548Z,99.99
2022-07-29T07:17:49.447Z,99.99
2022-07-29T07:18:49.413Z,99.99
2022-07-29T07:19:49.386Z,99.99
2022-07-29T07:20:49.339Z,99.99
2022-07-29T07:21:49.307Z,99.99
2022-07-29T07:22:49.265Z,99.99
2022-07-29T07:23:49.225Z,99.99
2022-07-29T07:24:49.188Z,99.99
2022-07-29T07:25:49.163Z,99.99
2022-07-29T07:26:49.133Z,99.99
2022-07-29T07:27:49.082Z,99.99
2022-07-29T07:28:49.042Z,99.99
2022-07-29T07:29:49.007Z,99.99
2022-07-29T07:30:48.972Z,99.99
2022-07-29T07:31:48.995Z,99.99
2022-07-29T07:32:48.909Z,99.99
2022-07-29T07:33:48.859Z,99.99
2022-07-29T07:34:48.823Z,99.99
2022-07-29T07:35:48.790Z,99.99
2022-07-29T07:36:48.771Z,99.99
2022-07-29T07:37:48.713Z,99.99
2022-07-29T07:38:48.689Z,99.99
2022-07-29T07:39:48.638Z,99.99
2022-07-29T07:40:48.600Z,99.99
2022-07-29T07:41:48.564Z,99.99
2022-07-29T07:42:48.527Z,99.99
2022-07-29T07:43:48.492Z,99.99
2022-07-29T07:45:12.110Z,99.99
2022-07-29T07:45:48.444Z,99.99
2022-07-29T07:46:48.383Z,99.99
2022-07-29T07:47:48.343Z,99.99
2022-07-29T07:48:48.342Z,99.99
2022-07-29T07:49:48.272Z,99.99
2022-07-29T07:50:48.246Z,99.99
2022-07-29T07:51:50.705Z,99.99
2022-07-29T07:52:48.162Z,99.99
2022-07-29T07:53:48.123Z,99.99
2022-07-29T07:54:48.087Z,99.99
2022-07-29T07:56:09.407Z,99.99
2022-07-29T07:56:48.027Z,99.99
2022-07-29T07:57:47.978Z,99.99
2022-07-29T07:58:47.948Z,99.99
2022-07-29T07:59:47.896Z,99.99
2022-07-29T08:00:47.879Z,99.99
2022-07-29T08:01:55.723Z,99.99
2022-07-29T08:02:47.859Z,99.99
2022-07-29T08:03:47.747Z,99.99
2022-07-29T08:04:47.723Z,99.99
2022-07-29T08:05:47.680Z,99.99
2022-07-29T08:06:47.637Z,99.99
2022-07-29T08:07:47.627Z,99.99
2022-07-29T08:08:47.570Z,99.99
2022-07-29T08:09:47.527Z,99.99
2022-07-29T08:10:47.502Z,99.99
2022-07-29T08:11:52.239Z,99.99
2022-07-29T08:12:47.430Z,99.99
2022-07-29T08:13:47.377Z,99.99
2022-07-29T08:14:47.340Z,99.99
2022-07-29T08:15:47.325Z,99.99
2022-07-29T08:16:47.327Z,99.99
2022-07-29T08:17:47.229Z,99.99
2022-07-29T08:18:47.191Z,99.99
2022-07-29T08:19:47.158Z,99.99
2022-07-29T08:20:47.122Z,99.99
2022-07-29T08:21:47.091Z,99.99
2022-07-29T08:22:47.048Z,99.99
2022-07-29T08:23:50.566Z,99.99
2022-07-29T08:24:46.967Z,99.99
2022-07-29T08:25:46.927Z,99.99
2022-07-29T08:26:46.894Z,99.99
2022-07-29T08:27:46.867Z,99.99
2022-07-29T08:28:47.062Z,99.99
2022-07-29T08:29:46.917Z,99.99
2022-07-29T08:30:46.747Z,99.99
2022-07-29T08:31:46.758Z,99.99
2022-07-29T08:32:55.236Z,99.99
2022-07-29T08:33:46.649Z,99.99
2022-07-29T08:34:46.595Z,99.99
2022-07-29T08:35:46.576Z,99.99
2022-07-29T08:36:51.434Z,99.99
2022-07-29T08:37:46.481Z,99.99
2022-07-29T08:38:46.459Z,99.99
2022-07-29T08:39:46.408Z,99.99
2022-07-29T08:40:46.369Z,99.99
2022-07-29T08:41:57.447Z,99.99
2022-07-29T08:42:46.298Z,99.99
2022-07-29T08:43:46.257Z,99.99
2022-07-29T08:44:46.233Z,99.99
2022-07-29T08:45:48.119Z,99.99
2022-07-29T08:46:46.146Z,99.99
2022-07-29T08:47:46.110Z,99.99
2022-07-29T08:48:46.103Z,99.99
2022-07-29T08:49:46.034Z,99.99
2022-07-29T08:50:46.560Z,99.99
2022-07-29T08:51:49.403Z,99.99
2022-07-29T08:52:45.923Z,99.99
2022-07-29T08:53:45.884Z,99.99
2022-07-29T08:54:45.849Z,99.99
2022-07-29T08:55:45.812Z,99.99
2022-07-29T08:56:45.778Z,99.99
2022-07-29T08:57:51.023Z,99.99
2022-07-29T08:58:48.749Z,99.99
2022-07-29T08:59:45.664Z,99.99
2022-07-29T09:00:45.720Z,99.99
2022-07-29T09:01:45.668Z,99.99
2022-07-29T09:02:46.651Z,99.99
2022-07-29T09:03:45.574Z,99.99
2022-07-29T09:04:45.477Z,99.99
2022-07-29T09:05:48.106Z,99.99
2022-07-29T09:06:45.407Z,99.99
2022-07-29T09:07:45.368Z,99.99
2022-07-29T09:08:55.185Z,99.99
2022-07-29T09:09:45.296Z,99.99
2022-07-29T09:10:45.301Z,99.99
2022-07-29T09:11:45.217Z,99.99
2022-07-29T09:12:45.182Z,99.99
2022-07-29T09:13:45.145Z,99.99
2022-07-29T09:14:45.123Z,99.99
2022-07-29T09:15:45.072Z,99.50
2022-07-29T09:16:53.276Z,99.60
2022-07-29T09:17:44.997Z,99.99
2022-07-29T09:18:44.963Z,99.99
2022-07-29T09:19:45.495Z,99.99
2022-07-29T09:20:44.899Z,99.05
2022-07-29T09:21:44.849Z,98.54
2022-07-29T09:22:44.824Z,98.04
2022-07-29T09:23:44.793Z,97.84
2022-07-29T09:24:44.744Z,98.94
2022-07-29T09:25:44.702Z,99.45
2022-07-29T09:26:44.668Z,95.68
2022-07-29T09:27:44.630Z,95.78
2022-07-29T09:28:44.604Z,95.88
2022-07-29T09:29:44.582Z,95.88
2022-07-29T09:30:44.522Z,97.24
2022-07-29T09:31:44.508Z,98.05
2022-07-29T09:32:44.448Z,99.51
2022-07-29T09:33:44.422Z,98.50
2022-07-29T09:34:44.377Z,99.16
2022-07-29T09:35:44.338Z,97.85
2022-07-29T09:36:44.305Z,94.68
2022-07-29T09:37:44.269Z,94.24
2022-07-29T09:38:44.231Z,92.23
2022-07-29T09:39:44.207Z,90.82
2022-07-29T09:40:44.159Z,89.11
2022-07-29T09:41:44.124Z,90.26
2022-07-29T09:42:44.091Z,88.41
2022-07-29T09:43:44.053Z,88.61
2022-07-29T09:44:44.017Z,88.71
2022-07-29T09:45:43.988Z,90.82
2022-07-29T09:46:43.989Z,89.07
2022-07-29T09:47:43.913Z,89.42
2022-07-29T09:48:43.909Z,89.11
2022-07-29T09:49:43.837Z,89.01
2022-07-29T09:50:43.802Z,86.00
2022-07-29T09:51:43.777Z,87.01
2022-07-29T09:52:43.742Z,89.31
2022-07-29T09:53:43.693Z,88.81
2022-07-29T09:54:43.658Z,90.62
2022-07-29T09:55:43.623Z,90.82
2022-07-29T09:56:43.599Z,90.22
2022-07-29T09:57:43.553Z,91.37
2022-07-29T09:58:43.515Z,92.63
2022-07-29T09:59:50.073Z,90.52
2022-07-29T10:00:43.484Z,87.81
2022-07-29T10:01:43.406Z,89.96
2022-07-29T10:02:43.384Z,89.96
2022-07-29T10:03:43.385Z,91.77
2022-07-29T10:04:43.324Z,92.97
2022-07-29T10:05:43.264Z,92.73
2022-07-29T10:06:43.229Z,92.68
2022-07-29T10:07:43.192Z,92.17
2022-07-29T10:08:43.167Z,93.18
2022-07-29T10:09:43.121Z,94.13
2022-07-29T10:10:43.088Z,91.42
2022-07-29T10:11:48.137Z,92.13
2022-07-29T10:12:43.010Z,93.33
2022-07-29T10:13:42.978Z,93.63
2022-07-29T10:14:42.957Z,94.04
2022-07-29T10:15:42.914Z,93.03
2022-07-29T10:16:42.951Z,91.72
2022-07-29T10:17:42.832Z,91.93
2022-07-29T10:18:42.805Z,93.93
2022-07-29T10:19:42.770Z,94.24
2022-07-29T10:20:42.766Z,92.08
2022-07-29T10:21:42.704Z,90.72
2022-07-29T10:22:53.199Z,91.32
2022-07-29T10:23:46.561Z,92.69
2022-07-29T10:24:42.581Z,92.99
2022-07-29T10:25:46.170Z,91.99
2022-07-29T10:26:42.520Z,92.89
2022-07-29T10:27:42.478Z,93.39
2022-07-29T10:28:42.437Z,93.69
2022-07-29T10:29:42.402Z,93.99
2022-07-29T10:30:42.364Z,93.29
2022-07-29T10:31:42.408Z,92.94
2022-07-29T10:32:42.292Z,93.04
2022-07-29T10:33:42.259Z,94.35
2022-07-29T10:34:42.220Z,92.34
2022-07-29T10:35:42.186Z,90.13
2022-07-29T10:36:43.307Z,89.59
2022-07-29T10:37:45.795Z,89.79
2022-07-29T10:38:45.640Z,91.69
2022-07-29T10:39:45.128Z,91.19
2022-07-29T10:40:42.007Z,91.15
2022-07-29T10:41:43.822Z,90.75
2022-07-29T10:42:41.936Z,90.35
2022-07-29T10:43:42.450Z,90.15
2022-07-29T10:44:41.872Z,89.75
2022-07-29T10:45:41.842Z,90.15
2022-07-29T10:46:41.899Z,90.75
2022-07-29T10:47:41.760Z,90.11
2022-07-29T10:48:41.727Z,90.00
2022-07-29T10:49:41.687Z,88.60
2022-07-29T10:50:41.664Z,87.54
2022-07-29T10:51:41.617Z,89.30
2022-07-29T10:52:41.578Z,90.31
2022-07-29T10:53:41.547Z,87.00
2022-07-29T10:54:43.908Z,86.19
2022-07-29T10:55:43.127Z,87.76
2022-07-29T10:56:41.450Z,87.76
2022-07-29T10:57:53.463Z,86.35
2022-07-29T10:58:41.367Z,87.82
2022-07-29T10:59:41.336Z,86.11
2022-07-29T11:00:41.300Z,86.61
2022-07-29T11:01:41.320Z,85.01
2022-07-29T11:02:43.502Z,86.68
2022-07-29T11:03:41.230Z,84.47
2022-07-29T11:04:41.157Z,84.77
2022-07-29T11:05:41.124Z,82.37
2022-07-29T11:06:42.782Z,84.03
2022-07-29T11:07:45.718Z,84.33
2022-07-29T11:08:41.015Z,83.73
2022-07-29T11:09:40.981Z,83.53
2022-07-29T11:10:40.951Z,84.59
2022-07-29T11:11:40.912Z,84.55
2022-07-29T11:12:40.888Z,84.15
2022-07-29T11:13:41.445Z,81.98
2022-07-29T11:14:40.808Z,80.47
2022-07-29T11:15:40.789Z,80.68
2022-07-29T11:16:40.738Z,82.59
2022-07-29T11:17:51.916Z,79.80
2022-07-29T11:18:40.674Z,78.90
2022-07-29T11:19:42.654Z,76.47
2022-07-29T11:20:40.617Z,78.37
2022-07-29T11:21:54.124Z,75.27
2022-07-29T11:22:43.043Z,74.08
2022-07-29T11:23:42.876Z,76.04
2022-07-29T11:24:50.449Z,74.64
2022-07-29T11:25:50.266Z,74.74
2022-07-29T11:26:40.406Z,73.25
2022-07-29T11:27:40.417Z,74.80
2022-07-29T11:28:40.341Z,72.25
2022-07-29T11:29:40.302Z,71.92
2022-07-29T11:30:40.268Z,72.61
2022-07-29T11:31:40.255Z,71.35
2022-07-29T11:32:40.200Z,72.31
2022-07-29T11:33:55.956Z,71.42
2022-07-29T11:34:40.134Z,70.98
2022-07-29T11:35:40.108Z,69.49
2022-07-29T11:36:40.070Z,68.50
2022-07-29T11:37:42.537Z,72.41
2022-07-29T11:38:41.621Z,71.69
2022-07-29T11:39:39.974Z,72.98
2022-07-29T11:40:39.943Z,69.03
2022-07-29T11:41:39.910Z,69.43
2022-07-29T11:42:41.901Z,69.69
2022-07-29T11:43:39.844Z,70.29
2022-07-29T11:44:39.816Z,69.96
2022-07-29T11:45:43.113Z,66.05
2022-07-29T11:46:39.746Z,67.60
2022-07-29T11:47:39.922Z,67.57
2022-07-29T11:48:39.710Z,65.78
2022-07-29T11:49:39.651Z,65.89
2022-07-29T11:50:44.405Z,68.24
2022-07-29T11:52:50.106Z,65.56
2022-07-29T11:53:39.535Z,65.06
2022-07-29T11:54:58.150Z,67.11
2022-07-29T11:55:51.417Z,63.24
2022-07-29T11:56:39.431Z,64.73
2022-07-29T11:57:39.523Z,62.75
2022-07-29T11:58:39.375Z,61.99
2022-07-29T11:59:39.351Z,65.23
2022-07-29T12:00:39.308Z,63.94
2022-07-29T12:01:39.276Z,62.78
2022-07-29T12:02:39.519Z,63.74
2022-07-29T12:03:39.269Z,62.82
2022-07-29T12:04:39.185Z,63.74
2022-07-29T12:05:39.153Z,61.23
2022-07-29T12:06:39.125Z,63.34
2022-07-29T12:07:39.284Z,62.92
2022-07-29T12:08:39.060Z,61.43
2022-07-29T12:09:40.166Z,61.67
2022-07-29T12:10:39.006Z,60.91
2022-07-29T12:11:38.972Z,61.50
2022-07-29T12:12:38.940Z,61.50
2022-07-29T12:13:38.910Z,61.21
2022-07-29T12:14:38.894Z,59.79
2022-07-29T12:15:46.310Z,59.89
2022-07-29T12:16:38.854Z,59.69
2022-07-29T12:17:38.800Z,59.79
2022-07-29T12:18:38.923Z,58.80
2022-07-29T12:19:38.743Z,58.30
2022-07-29T12:20:38.716Z,61.15
2022-07-29T12:21:38.675Z,59.63
2022-07-29T12:22:38.644Z,58.07
2022-07-29T12:23:38.617Z,57.90
2022-07-29T12:24:38.593Z,59.19
2022-07-29T12:25:38.557Z,60.02
2022-07-29T12:26:40.367Z,59.94
2022-07-29T12:27:40.329Z,60.94
2022-07-29T12:28:38.475Z,60.94
2022-07-29T12:29:38.444Z,59.75
2022-07-29T12:30:38.431Z,60.64
2022-07-29T12:31:42.179Z,61.33
2022-07-29T12:32:38.413Z,62.02
2022-07-29T12:33:38.328Z,62.75
2022-07-29T12:34:38.291Z,61.86
2022-07-29T12:35:38.259Z,59.28
2022-07-29T12:36:38.238Z,61.86
2022-07-29T12:37:40.971Z,61.10
2022-07-29T12:38:38.164Z,61.99
2022-07-29T12:39:38.136Z,61.69
2022-07-29T12:40:38.105Z,60.57
2022-07-29T12:41:38.071Z,61.04
2022-07-29T12:42:38.056Z,62.52
2022-07-29T12:43:38.011Z,60.31
2022-07-29T12:44:37.979Z,59.39
2022-07-29T12:45:37.950Z,59.09
2022-07-29T12:46:37.958Z,60.68
2022-07-29T12:47:37.888Z,58.70
2022-07-29T12:48:37.920Z,58.20
2022-07-29T12:49:37.970Z,58.30
2022-07-29T12:50:37.800Z,59.42
2022-07-29T12:51:37.769Z,58.73
2022-07-29T12:52:37.737Z,58.23